Lutz, FL (33548)

6:16 PM EST on February 27, 2017 (GMT -0500)
Casa De Bally | | Change Station

Elev 73 ft 28.14 °N, 82.44 °W | Updated 0 second ago

Partly Cloudy
Partly Cloudy
80.6 °F
Feels Like 83 °F
N
0.0
Wind Variable Wind from West
Gusts 0.0 mph

Today
High -- | Low -- °F
--% Chance of Precip.
Yesterday
High -- | Low -- °F
Precip. -- in
Pressure 30.19 in
Visibility 10.0 miles
Clouds Scattered Clouds 6500 ft
Mostly Cloudy 7000 ft
Heat Index 83 °F
Dew Point 66 °F
Humidity 62%
Rainfall 0.00 in
Snow Depth Not available.
6:56 AM 6:29 PM
New Moon, 2% visible
METAR KVDF 272315Z AUTO 22005KT 10SM SCT065 BKN070 27/18 A3019 RMK AO2
Pressure 30.19 in
Visibility 10.0 miles
Clouds Scattered Clouds 6500 ft
Mostly Cloudy 7000 ft
Heat Index 83 °F
Dew Point 66 °F
Humidity 62%
Rainfall 0.00 in
Snow Depth Not available.
6:56 AM 6:29 PM
New Moon, 2% visible
METAR KVDF 272315Z AUTO 22005KT 10SM SCT065 BKN070 27/18 A3019 RMK AO2

Get Your Daily Forecast Email!

Thanks for signing up!

Be on the lookout for a verification email in your inbox.

You'll start receiving the daily forecast at 8 AM.

×

10-Day Weather Forecast

Almanac

Astronomy

Feb. 27, 2017 Rise Set
Actual Time
Civil Twilight
Nautical Twilight
Astronomical Twilight
Moon
Length of Visible Light
Length of Day
Tomorrow will be .
, % of the Moon is Illuminated

Today's Extremes

State Highs State Lows

Community

WunderPhotos

Upload Photos

1,962,540 photos uploaded!

WunderBlog® & News

Nearby

Air Quality

  Air Quality AQ Index Pollutant
Not available.

Snow Depth

Station Depth Elevation

Earthquake Activity

City Distance Mag. Time & Date
Minimum magnitude displayed is 2.5.

Coastal Water Temperatures

Place Temperature

Stations

Nearby Weather Stations

Station Location Temp. Windchill Dew Point Humidity Wind Precip. Elev Updated Type
                   

Watches & Warnings

There are currently no watches in effect.